sensor_id;sensor_type;location;lat;lon;timestamp;temperature;humidity
77052;SHT30;65980;44.898;8.602;2024-02-28T00:01:28;8.28;90.17
77052;SHT30;65980;44.898;8.602;2024-02-28T00:04:33;8.31;89.72
77052;SHT30;65980;44.898;8.602;2024-02-28T00:07:38;8.13;89.28
77052;SHT30;65980;44.898;8.602;2024-02-28T00:10:43;8.05;90.03
77052;SHT30;65980;44.898;8.602;2024-02-28T00:13:47;8.18;90.20
77052;SHT30;65980;44.898;8.602;2024-02-28T00:16:52;8.14;90.23
77052;SHT30;65980;44.898;8.602;2024-02-28T00:19:57;8.11;89.95
77052;SHT30;65980;44.898;8.602;2024-02-28T00:23:03;8.22;89.90
77052;SHT30;65980;44.898;8.602;2024-02-28T00:26:07;8.14;89.92
77052;SHT30;65980;44.898;8.602;2024-02-28T00:29:12;8.17;89.51
77052;SHT30;65980;44.898;8.602;2024-02-28T00:32:17;8.13;89.86
77052;SHT30;65980;44.898;8.602;2024-02-28T00:35:22;8.21;90.05
77052;SHT30;65980;44.898;8.602;2024-02-28T00:38:27;8.18;89.71
77052;SHT30;65980;44.898;8.602;2024-02-28T00:41:31;8.10;89.55
77052;SHT30;65980;44.898;8.602;2024-02-28T00:44:36;7.98;89.86
77052;SHT30;65980;44.898;8.602;2024-02-28T00:47:41;8.08;90.40
77052;SHT30;65980;44.898;8.602;2024-02-28T00:50:46;8.18;90.17
77052;SHT30;65980;44.898;8.602;2024-02-28T00:53:50;8.13;90.01
77052;SHT30;65980;44.898;8.602;2024-02-28T00:56:55;8.22;90.17
77052;SHT30;65980;44.898;8.602;2024-02-28T01:00:04;8.32;90.11
77052;SHT30;65980;44.898;8.602;2024-02-28T01:03:09;8.35;89.70
77052;SHT30;65980;44.898;8.602;2024-02-28T01:06:15;8.41;89.80
77052;SHT30;65980;44.898;8.602;2024-02-28T01:09:21;8.42;89.55
77052;SHT30;65980;44.898;8.602;2024-02-28T01:12:26;8.35;89.47
77052;SHT30;65980;44.898;8.602;2024-02-28T01:15:31;8.25;89.12
77052;SHT30;65980;44.898;8.602;2024-02-28T01:18:35;8.25;89.41
77052;SHT30;65980;44.898;8.602;2024-02-28T01:21:39;8.25;89.63
77052;SHT30;65980;44.898;8.602;2024-02-28T01:24:46;7.98;90.18
77052;SHT30;65980;44.898;8.602;2024-02-28T01:27:51;8.14;90.25
77052;SHT30;65980;44.898;8.602;2024-02-28T01:30:56;8.28;89.30
77052;SHT30;65980;44.898;8.602;2024-02-28T01:34:00;8.30;89.28
77052;SHT30;65980;44.898;8.602;2024-02-28T01:37:04;8.21;89.53
77052;SHT30;65980;44.898;8.602;2024-02-28T01:40:09;8.18;89.71
77052;SHT30;65980;44.898;8.602;2024-02-28T01:43:13;8.25;89.81
77052;SHT30;65980;44.898;8.602;2024-02-28T01:46:28;8.34;89.86
77052;SHT30;65980;44.898;8.602;2024-02-28T01:49:32;8.38;89.82
77052;SHT30;65980;44.898;8.602;2024-02-28T01:52:38;8.45;89.62
77052;SHT30;65980;44.898;8.602;2024-02-28T01:55:43;8.44;89.62
77052;SHT30;65980;44.898;8.602;2024-02-28T01:58:49;8.46;89.86
77052;SHT30;65980;44.898;8.602;2024-02-28T02:01:54;8.52;89.65
77052;SHT30;65980;44.898;8.602;2024-02-28T02:04:59;8.59;89.72
77052;SHT30;65980;44.898;8.602;2024-02-28T02:08:04;8.58;89.64
77052;SHT30;65980;44.898;8.602;2024-02-28T02:11:09;8.53;89.57
77052;SHT30;65980;44.898;8.602;2024-02-28T02:14:13;8.49;89.76
77052;SHT30;65980;44.898;8.602;2024-02-28T02:17:17;8.27;88.90
77052;SHT30;65980;44.898;8.602;2024-02-28T02:20:22;8.11;90.13
77052;SHT30;65980;44.898;8.602;2024-02-28T02:23:27;8.10;90.20
77052;SHT30;65980;44.898;8.602;2024-02-28T02:26:32;8.03;90.55
77052;SHT30;65980;44.898;8.602;2024-02-28T02:29:36;8.18;90.55
77052;SHT30;65980;44.898;8.602;2024-02-28T02:32:41;8.05;90.28
77052;SHT30;65980;44.898;8.602;2024-02-28T02:35:46;8.11;90.65
77052;SHT30;65980;44.898;8.602;2024-02-28T02:38:52;8.35;90.45
77052;SHT30;65980;44.898;8.602;2024-02-28T02:41:57;8.42;90.25
77052;SHT30;65980;44.898;8.602;2024-02-28T02:45:00;8.45;90.25
77052;SHT30;65980;44.898;8.602;2024-02-28T02:48:05;8.42;90.17
77052;SHT30;65980;44.898;8.602;2024-02-28T02:51:10;8.50;89.81
77052;SHT30;65980;44.898;8.602;2024-02-28T02:54:14;8.53;89.96
77052;SHT30;65980;44.898;8.602;2024-02-28T02:57:18;8.44;89.96
77052;SHT30;65980;44.898;8.602;2024-02-28T03:00:23;8.41;90.21
77052;SHT30;65980;44.898;8.602;2024-02-28T03:03:27;8.44;89.55
77052;SHT30;65980;44.898;8.602;2024-02-28T03:06:31;8.45;89.78
77052;SHT30;65980;44.898;8.602;2024-02-28T03:09:36;8.46;89.83
77052;SHT30;65980;44.898;8.602;2024-02-28T03:12:40;8.52;89.80
77052;SHT30;65980;44.898;8.602;2024-02-28T03:15:45;8.41;89.27
77052;SHT30;65980;44.898;8.602;2024-02-28T03:18:49;8.11;90.30
77052;SHT30;65980;44.898;8.602;2024-02-28T03:21:53;8.00;90.82
77052;SHT30;65980;44.898;8.602;2024-02-28T03:24:58;7.73;92.44
77052;SHT30;65980;44.898;8.602;2024-02-28T03:28:03;7.72;92.88
77052;SHT30;65980;44.898;8.602;2024-02-28T03:31:07;7.97;92.44
77052;SHT30;65980;44.898;8.602;2024-02-28T03:34:11;7.91;92.45
77052;SHT30;65980;44.898;8.602;2024-02-28T03:37:15;7.97;92.21
77052;SHT30;65980;44.898;8.602;2024-02-28T03:40:19;8.07;91.95
77052;SHT30;65980;44.898;8.602;2024-02-28T03:43:23;8.14;92.06
77052;SHT30;65980;44.898;8.602;2024-02-28T03:46:27;8.20;91.63
77052;SHT30;65980;44.898;8.602;2024-02-28T03:49:31;7.96;92.07
77052;SHT30;65980;44.898;8.602;2024-02-28T03:52:36;7.98;92.01
77052;SHT30;65980;44.898;8.602;2024-02-28T03:59:09;7.76;93.15
77052;SHT30;65980;44.898;8.602;2024-02-28T04:02:14;7.77;93.31
77052;SHT30;65980;44.898;8.602;2024-02-28T04:05:19;7.98;92.82
77052;SHT30;65980;44.898;8.602;2024-02-28T04:08:23;8.15;92.47
77052;SHT30;65980;44.898;8.602;2024-02-28T04:11:28;8.25;92.02
77052;SHT30;65980;44.898;8.602;2024-02-28T04:14:32;8.38;91.73
77052;SHT30;65980;44.898;8.602;2024-02-28T04:17:36;8.44;91.53
77052;SHT30;65980;44.898;8.602;2024-02-28T04:20:40;8.41;91.01
77052;SHT30;65980;44.898;8.602;2024-02-28T04:23:44;8.07;91.79
77052;SHT30;65980;44.898;8.602;2024-02-28T04:26:48;8.24;91.71
77052;SHT30;65980;44.898;8.602;2024-02-28T04:29:52;8.31;91.44
77052;SHT30;65980;44.898;8.602;2024-02-28T04:32:57;8.46;91.41
77052;SHT30;65980;44.898;8.602;2024-02-28T04:36:01;8.58;90.74
77052;SHT30;65980;44.898;8.602;2024-02-28T04:39:06;8.58;90.16
77052;SHT30;65980;44.898;8.602;2024-02-28T04:42:13;8.55;90.06
77052;SHT30;65980;44.898;8.602;2024-02-28T04:45:17;8.52;89.96
77052;SHT30;65980;44.898;8.602;2024-02-28T04:48:21;8.39;90.47
77052;SHT30;65980;44.898;8.602;2024-02-28T04:51:26;8.41;90.74
77052;SHT30;65980;44.898;8.602;2024-02-28T04:54:30;8.55;90.37
77052;SHT30;65980;44.898;8.602;2024-02-28T04:57:34;8.52;90.22
77052;SHT30;65980;44.898;8.602;2024-02-28T05:00:39;8.34;90.09
77052;SHT30;65980;44.898;8.602;2024-02-28T05:03:44;8.37;90.26
77052;SHT30;65980;44.898;8.602;2024-02-28T05:06:49;8.42;90.69
77052;SHT30;65980;44.898;8.602;2024-02-28T05:09:54;8.45;90.75
77052;SHT30;65980;44.898;8.602;2024-02-28T05:12:58;8.48;90.48
77052;SHT30;65980;44.898;8.602;2024-02-28T05:16:03;8.41;90.44
77052;SHT30;65980;44.898;8.602;2024-02-28T05:19:07;8.50;90.65
77052;SHT30;65980;44.898;8.602;2024-02-28T05:22:11;8.55;90.59
77052;SHT30;65980;44.898;8.602;2024-02-28T05:25:16;8.62;90.73
77052;SHT30;65980;44.898;8.602;2024-02-28T05:28:21;8.60;90.78
77052;SHT30;65980;44.898;8.602;2024-02-28T05:31:27;8.62;90.64
77052;SHT30;65980;44.898;8.602;2024-02-28T05:34:34;8.44;90.33
77052;SHT30;65980;44.898;8.602;2024-02-28T05:37:39;8.37;90.93
77052;SHT30;65980;44.898;8.602;2024-02-28T05:40:44;8.52;91.01
77052;SHT30;65980;44.898;8.602;2024-02-28T05:43:51;8.55;90.66
77052;SHT30;65980;44.898;8.602;2024-02-28T05:46:55;8.35;90.82
77052;SHT30;65980;44.898;8.602;2024-02-28T05:49:59;8.44;90.79
77052;SHT30;65980;44.898;8.602;2024-02-28T05:53:04;8.32;91.04
77052;SHT30;65980;44.898;8.602;2024-02-28T05:56:09;8.28;91.65
77052;SHT30;65980;44.898;8.602;2024-02-28T05:59:20;8.48;91.20
77052;SHT30;65980;44.898;8.602;2024-02-28T06:02:25;8.59;90.86
77052;SHT30;65980;44.898;8.602;2024-02-28T06:05:28;8.66;90.75
77052;SHT30;65980;44.898;8.602;2024-02-28T06:08:34;8.70;90.57
77052;SHT30;65980;44.898;8.602;2024-02-28T06:11:38;8.66;90.68
77052;SHT30;65980;44.898;8.602;2024-02-28T06:14:42;8.66;90.80
77052;SHT30;65980;44.898;8.602;2024-02-28T06:17:47;8.80;90.84
77052;SHT30;65980;44.898;8.602;2024-02-28T06:20:53;8.87;90.48
77052;SHT30;65980;44.898;8.602;2024-02-28T06:23:58;8.83;90.04
77052;SHT30;65980;44.898;8.602;2024-02-28T06:27:03;8.83;89.77
77052;SHT30;65980;44.898;8.602;2024-02-28T06:30:08;8.73;89.96
77052;SHT30;65980;44.898;8.602;2024-02-28T06:33:13;8.83;90.24
77052;SHT30;65980;44.898;8.602;2024-02-28T06:36:17;8.88;90.10
77052;SHT30;65980;44.898;8.602;2024-02-28T06:39:23;8.81;90.33
77052;SHT30;65980;44.898;8.602;2024-02-28T06:42:27;8.93;90.27
77052;SHT30;65980;44.898;8.602;2024-02-28T06:45:31;8.93;90.06
77052;SHT30;65980;44.898;8.602;2024-02-28T06:48:35;8.90;90.36
77052;SHT30;65980;44.898;8.602;2024-02-28T06:51:43;8.87;90.13
77052;SHT30;65980;44.898;8.602;2024-02-28T06:54:47;8.96;89.99
77052;SHT30;65980;44.898;8.602;2024-02-28T06:57:52;9.01;89.59
77052;SHT30;65980;44.898;8.602;2024-02-28T07:00:56;9.05;89.50
77052;SHT30;65980;44.898;8.602;2024-02-28T07:04:00;8.90;89.77
77052;SHT30;65980;44.898;8.602;2024-02-28T07:07:04;8.76;90.23
77052;SHT30;65980;44.898;8.602;2024-02-28T07:10:10;8.90;89.66
77052;SHT30;65980;44.898;8.602;2024-02-28T07:13:15;9.00;89.52
77052;SHT30;65980;44.898;8.602;2024-02-28T07:16:19;8.97;89.77
77052;SHT30;65980;44.898;8.602;2024-02-28T07:19:24;9.04;89.76
77052;SHT30;65980;44.898;8.602;2024-02-28T07:22:29;9.00;89.71
77052;SHT30;65980;44.898;8.602;2024-02-28T07:25:34;8.88;90.03
77052;SHT30;65980;44.898;8.602;2024-02-28T07:28:37;8.93;90.07
77052;SHT30;65980;44.898;8.602;2024-02-28T07:31:41;8.72;90.53
77052;SHT30;65980;44.898;8.602;2024-02-28T07:34:45;8.75;90.67
77052;SHT30;65980;44.898;8.602;2024-02-28T07:37:50;8.70;91.14
77052;SHT30;65980;44.898;8.602;2024-02-28T07:40:54;8.60;91.63
77052;SHT30;65980;44.898;8.602;2024-02-28T07:44:00;8.79;91.43
77052;SHT30;65980;44.898;8.602;2024-02-28T07:47:06;9.00;91.21
77052;SHT30;65980;44.898;8.602;2024-02-28T07:50:10;9.18;90.71
77052;SHT30;65980;44.898;8.602;2024-02-28T07:53:16;9.36;90.45
77052;SHT30;65980;44.898;8.602;2024-02-28T07:56:21;9.49;90.32
77052;SHT30;65980;44.898;8.602;2024-02-28T07:59:26;9.52;90.57
77052;SHT30;65980;44.898;8.602;2024-02-28T08:02:31;9.39;90.72
77052;SHT30;65980;44.898;8.602;2024-02-28T08:05:35;9.22;91.52
77052;SHT30;65980;44.898;8.602;2024-02-28T08:08:49;9.34;91.62
77052;SHT30;65980;44.898;8.602;2024-02-28T08:11:53;9.50;91.51
77052;SHT30;65980;44.898;8.602;2024-02-28T08:14:59;9.63;91.28
77052;SHT30;65980;44.898;8.602;2024-02-28T08:18:04;9.77;90.97
77052;SHT30;65980;44.898;8.602;2024-02-28T08:21:09;9.94;90.68
77052;SHT30;65980;44.898;8.602;2024-02-28T08:24:13;10.07;90.43
77052;SHT30;65980;44.898;8.602;2024-02-28T08:27:20;10.14;90.26
77052;SHT30;65980;44.898;8.602;2024-02-28T08:30:25;10.07;90.42
77052;SHT30;65980;44.898;8.602;2024-02-28T08:33:30;10.27;90.05
77052;SHT30;65980;44.898;8.602;2024-02-28T08:36:34;10.30;89.28
77052;SHT30;65980;44.898;8.602;2024-02-28T08:39:39;10.18;89.14
77052;SHT30;65980;44.898;8.602;2024-02-28T08:42:43;10.27;89.73
77052;SHT30;65980;44.898;8.602;2024-02-28T08:45:48;10.32;89.77
77052;SHT30;65980;44.898;8.602;2024-02-28T08:48:55;10.49;89.51
77052;SHT30;65980;44.898;8.602;2024-02-28T08:52:01;10.62;89.40
77052;SHT30;65980;44.898;8.602;2024-02-28T08:55:06;10.66;89.22
77052;SHT30;65980;44.898;8.602;2024-02-28T08:58:10;10.49;89.91
77052;SHT30;65980;44.898;8.602;2024-02-28T09:01:15;10.67;89.58
77052;SHT30;65980;44.898;8.602;2024-02-28T09:04:19;10.84;89.34
77052;SHT30;65980;44.898;8.602;2024-02-28T09:07:23;10.96;88.93
77052;SHT30;65980;44.898;8.602;2024-02-28T09:10:28;10.94;88.80
77052;SHT30;65980;44.898;8.602;2024-02-28T09:13:34;10.92;88.79
77052;SHT30;65980;44.898;8.602;2024-02-28T09:16:41;10.84;89.39
77052;SHT30;65980;44.898;8.602;2024-02-28T09:19:46;10.94;88.90
77052;SHT30;65980;44.898;8.602;2024-02-28T09:22:51;10.96;88.85
77052;SHT30;65980;44.898;8.602;2024-02-28T09:25:55;10.87;89.45
77052;SHT30;65980;44.898;8.602;2024-02-28T09:29:00;10.86;89.54
77052;SHT30;65980;44.898;8.602;2024-02-28T09:32:04;10.96;89.39
77052;SHT30;65980;44.898;8.602;2024-02-28T09:35:09;11.06;89.19
77052;SHT30;65980;44.898;8.602;2024-02-28T09:38:18;10.81;89.59
77052;SHT30;65980;44.898;8.602;2024-02-28T09:41:24;10.66;90.77
77052;SHT30;65980;44.898;8.602;2024-02-28T09:44:32;10.67;90.98
77052;SHT30;65980;44.898;8.602;2024-02-28T09:47:39;10.48;91.07
77052;SHT30;65980;44.898;8.602;2024-02-28T09:50:45;10.41;91.37
77052;SHT30;65980;44.898;8.602;2024-02-28T09:53:51;10.46;91.43
77052;SHT30;65980;44.898;8.602;2024-02-28T09:56:56;10.52;91.46
77052;SHT30;65980;44.898;8.602;2024-02-28T10:00:00;10.70;91.29
77052;SHT30;65980;44.898;8.602;2024-02-28T10:03:05;10.79;90.77
77052;SHT30;65980;44.898;8.602;2024-02-28T10:06:11;11.00;90.10
77052;SHT30;65980;44.898;8.602;2024-02-28T10:09:22;11.12;89.83
77052;SHT30;65980;44.898;8.602;2024-02-28T10:12:30;11.11;89.19
77052;SHT30;65980;44.898;8.602;2024-02-28T10:15:34;11.28;88.60
77052;SHT30;65980;44.898;8.602;2024-02-28T10:18:38;11.38;88.00
77052;SHT30;65980;44.898;8.602;2024-02-28T10:21:46;11.34;88.46
77052;SHT30;65980;44.898;8.602;2024-02-28T10:24:57;11.54;88.06
77052;SHT30;65980;44.898;8.602;2024-02-28T10:28:03;11.82;87.91
77052;SHT30;65980;44.898;8.602;2024-02-28T10:31:08;12.01;87.31
77052;SHT30;65980;44.898;8.602;2024-02-28T10:34:17;12.10;87.07
77052;SHT30;65980;44.898;8.602;2024-02-28T10:37:22;12.29;86.39
77052;SHT30;65980;44.898;8.602;2024-02-28T10:40:28;12.28;86.25
77052;SHT30;65980;44.898;8.602;2024-02-28T10:43:33;12.42;86.30
77052;SHT30;65980;44.898;8.602;2024-02-28T10:46:39;12.80;85.07
77052;SHT30;65980;44.898;8.602;2024-02-28T10:49:48;12.83;84.43
77052;SHT30;65980;44.898;8.602;2024-02-28T10:52:54;12.63;85.33
77052;SHT30;65980;44.898;8.602;2024-02-28T10:56:05;12.83;85.20
77052;SHT30;65980;44.898;8.602;2024-02-28T10:59:12;12.75;84.93
77052;SHT30;65980;44.898;8.602;2024-02-28T11:02:17;12.96;84.57
77052;SHT30;65980;44.898;8.602;2024-02-28T11:05:22;13.01;84.30
77052;SHT30;65980;44.898;8.602;2024-02-28T11:08:29;12.79;84.64
77052;SHT30;65980;44.898;8.602;2024-02-28T11:11:46;12.77;84.91
77052;SHT30;65980;44.898;8.602;2024-02-28T11:15:02;12.73;85.04
77052;SHT30;65980;44.898;8.602;2024-02-28T11:18:18;12.80;84.80
77052;SHT30;65980;44.898;8.602;2024-02-28T11:21:27;12.52;85.44
77052;SHT30;65980;44.898;8.602;2024-02-28T11:24:36;12.50;85.72
77052;SHT30;65980;44.898;8.602;2024-02-28T11:27:47;12.56;85.53
77052;SHT30;65980;44.898;8.602;2024-02-28T11:30:51;12.73;85.65
77052;SHT30;65980;44.898;8.602;2024-02-28T11:33:57;12.57;85.68
77052;SHT30;65980;44.898;8.602;2024-02-28T11:37:02;12.67;85.91
77052;SHT30;65980;44.898;8.602;2024-02-28T11:40:09;12.42;85.95
77052;SHT30;65980;44.898;8.602;2024-02-28T11:43:17;12.52;86.16
77052;SHT30;65980;44.898;8.602;2024-02-28T11:46:23;12.00;87.02
77052;SHT30;65980;44.898;8.602;2024-02-28T11:49:28;11.98;87.84
77052;SHT30;65980;44.898;8.602;2024-02-28T11:52:33;11.90;88.53
77052;SHT30;65980;44.898;8.602;2024-02-28T11:55:37;12.14;87.33
77052;SHT30;65980;44.898;8.602;2024-02-28T11:58:51;12.21;87.06
77052;SHT30;65980;44.898;8.602;2024-02-28T12:01:56;12.37;86.98
77052;SHT30;65980;44.898;8.602;2024-02-28T12:05:02;12.65;86.32
77052;SHT30;65980;44.898;8.602;2024-02-28T12:08:07;12.73;85.62
77052;SHT30;65980;44.898;8.602;2024-02-28T12:11:13;12.76;84.85
77052;SHT30;65980;44.898;8.602;2024-02-28T12:14:17;12.83;84.88
77052;SHT30;65980;44.898;8.602;2024-02-28T12:17:24;12.90;84.90
77052;SHT30;65980;44.898;8.602;2024-02-28T12:20:29;12.73;84.68
77052;SHT30;65980;44.898;8.602;2024-02-28T12:23:33;12.73;85.01
77052;SHT30;65980;44.898;8.602;2024-02-28T12:26:38;12.44;86.17
77052;SHT30;65980;44.898;8.602;2024-02-28T12:29:44;12.46;85.83
77052;SHT30;65980;44.898;8.602;2024-02-28T12:32:49;12.39;86.25
77052;SHT30;65980;44.898;8.602;2024-02-28T12:35:53;12.52;86.34
77052;SHT30;65980;44.898;8.602;2024-02-28T12:38:59;12.76;85.83
77052;SHT30;65980;44.898;8.602;2024-02-28T12:42:04;12.97;85.74
77052;SHT30;65980;44.898;8.602;2024-02-28T12:45:09;12.94;85.06
77052;SHT30;65980;44.898;8.602;2024-02-28T12:48:13;12.66;85.97
77052;SHT30;65980;44.898;8.602;2024-02-28T12:51:44;12.82;85.26
77052;SHT30;65980;44.898;8.602;2024-02-28T12:54:49;12.90;84.63
77052;SHT30;65980;44.898;8.602;2024-02-28T12:57:54;12.63;85.23
77052;SHT30;65980;44.898;8.602;2024-02-28T13:00:59;12.46;85.96
77052;SHT30;65980;44.898;8.602;2024-02-28T13:04:03;12.65;85.70
77052;SHT30;65980;44.898;8.602;2024-02-28T13:07:07;12.70;85.43
77052;SHT30;65980;44.898;8.602;2024-02-28T13:10:13;12.80;85.21
77052;SHT30;65980;44.898;8.602;2024-02-28T13:13:17;12.84;85.24
77052;SHT30;65980;44.898;8.602;2024-02-28T13:16:22;12.94;85.07
77052;SHT30;65980;44.898;8.602;2024-02-28T13:19:27;12.76;85.57
77052;SHT30;65980;44.898;8.602;2024-02-28T13:23:17;12.73;85.86
77052;SHT30;65980;44.898;8.602;2024-02-28T13:26:07;13.10;85.66
77052;SHT30;65980;44.898;8.602;2024-02-28T13:29:11;13.32;85.14
77052;SHT30;65980;44.898;8.602;2024-02-28T13:32:16;13.39;83.90
77052;SHT30;65980;44.898;8.602;2024-02-28T13:35:20;13.29;83.95
77052;SHT30;65980;44.898;8.602;2024-02-28T13:38:26;13.51;84.10
77052;SHT30;65980;44.898;8.602;2024-02-28T13:41:30;13.48;83.29
77052;SHT30;65980;44.898;8.602;2024-02-28T13:44:35;13.42;83.29
77052;SHT30;65980;44.898;8.602;2024-02-28T13:47:43;13.44;83.50
77052;SHT30;65980;44.898;8.602;2024-02-28T13:50:48;13.48;83.49
77052;SHT30;65980;44.898;8.602;2024-02-28T13:53:52;13.44;83.65
77052;SHT30;65980;44.898;8.602;2024-02-28T13:56:58;13.07;84.78
77052;SHT30;65980;44.898;8.602;2024-02-28T14:00:03;13.41;83.76
77052;SHT30;65980;44.898;8.602;2024-02-28T14:03:15;13.62;83.53
77052;SHT30;65980;44.898;8.602;2024-02-28T14:06:22;13.70;83.10
77052;SHT30;65980;44.898;8.602;2024-02-28T14:09:27;13.65;83.02
77052;SHT30;65980;44.898;8.602;2024-02-28T14:13:01;13.77;82.51
77052;SHT30;65980;44.898;8.602;2024-02-28T14:16:05;13.99;82.59
77052;SHT30;65980;44.898;8.602;2024-02-28T14:19:10;13.93;82.64
77052;SHT30;65980;44.898;8.602;2024-02-28T14:22:14;13.90;82.28
77052;SHT30;65980;44.898;8.602;2024-02-28T14:25:19;13.67;82.30
77052;SHT30;65980;44.898;8.602;2024-02-28T14:28:26;13.20;83.12
77052;SHT30;65980;44.898;8.602;2024-02-28T14:31:30;13.41;82.82
77052;SHT30;65980;44.898;8.602;2024-02-28T14:34:34;13.39;82.83
77052;SHT30;65980;44.898;8.602;2024-02-28T14:37:39;13.15;82.70
77052;SHT30;65980;44.898;8.602;2024-02-28T14:40:44;13.34;83.02
77052;SHT30;65980;44.898;8.602;2024-02-28T14:43:49;13.41;83.38
77052;SHT30;65980;44.898;8.602;2024-02-28T14:46:53;13.39;82.99
77052;SHT30;65980;44.898;8.602;2024-02-28T14:49:57;13.38;83.20
77052;SHT30;65980;44.898;8.602;2024-02-28T14:53:02;13.39;83.48
77052;SHT30;65980;44.898;8.602;2024-02-28T14:56:08;13.28;83.43
77052;SHT30;65980;44.898;8.602;2024-02-28T14:59:14;13.06;83.54
77052;SHT30;65980;44.898;8.602;2024-02-28T15:02:19;12.93;84.34
77052;SHT30;65980;44.898;8.602;2024-02-28T15:05:24;12.90;84.69
77052;SHT30;65980;44.898;8.602;2024-02-28T15:08:29;13.01;84.35
77052;SHT30;65980;44.898;8.602;2024-02-28T15:11:35;12.92;84.72
77052;SHT30;65980;44.898;8.602;2024-02-28T15:14:40;13.06;84.70
77052;SHT30;65980;44.898;8.602;2024-02-28T15:17:48;13.04;84.84
77052;SHT30;65980;44.898;8.602;2024-02-28T15:20:55;12.93;85.80
77052;SHT30;65980;44.898;8.602;2024-02-28T15:24:00;13.04;85.66
77052;SHT30;65980;44.898;8.602;2024-02-28T15:27:06;13.10;85.70
77052;SHT30;65980;44.898;8.602;2024-02-28T15:30:11;13.12;85.64
77052;SHT30;65980;44.898;8.602;2024-02-28T15:33:16;13.10;85.72
77052;SHT30;65980;44.898;8.602;2024-02-28T15:36:21;12.83;85.97
77052;SHT30;65980;44.898;8.602;2024-02-28T15:39:25;12.79;86.41
77052;SHT30;65980;44.898;8.602;2024-02-28T15:42:31;12.87;86.20
77052;SHT30;65980;44.898;8.602;2024-02-28T15:45:36;12.87;86.41
77052;SHT30;65980;44.898;8.602;2024-02-28T15:48:43;13.07;86.37
77052;SHT30;65980;44.898;8.602;2024-02-28T15:51:48;13.15;86.13
77052;SHT30;65980;44.898;8.602;2024-02-28T15:54:52;13.21;86.12
77052;SHT30;65980;44.898;8.602;2024-02-28T15:57:56;13.24;85.89
77052;SHT30;65980;44.898;8.602;2024-02-28T16:01:00;12.97;85.94
77052;SHT30;65980;44.898;8.602;2024-02-28T16:04:05;12.93;86.05
77052;SHT30;65980;44.898;8.602;2024-02-28T16:07:10;12.96;86.06
77052;SHT30;65980;44.898;8.602;2024-02-28T16:10:14;12.90;86.40
77052;SHT30;65980;44.898;8.602;2024-02-28T16:13:18;12.92;86.46
77052;SHT30;65980;44.898;8.602;2024-02-28T16:16:22;12.96;86.42
77052;SHT30;65980;44.898;8.602;2024-02-28T16:19:27;12.94;86.54
77052;SHT30;65980;44.898;8.602;2024-02-28T16:22:31;12.89;86.90
77052;SHT30;65980;44.898;8.602;2024-02-28T16:25:35;12.89;87.01
77052;SHT30;65980;44.898;8.602;2024-02-28T16:28:39;12.97;86.69
77052;SHT30;65980;44.898;8.602;2024-02-28T16:31:43;12.97;86.65
77052;SHT30;65980;44.898;8.602;2024-02-28T16:34:53;12.86;87.01
77052;SHT30;65980;44.898;8.602;2024-02-28T16:37:57;12.89;86.70
77052;SHT30;65980;44.898;8.602;2024-02-28T16:41:01;12.89;86.81
77052;SHT30;65980;44.898;8.602;2024-02-28T16:44:13;12.92;87.00
77052;SHT30;65980;44.898;8.602;2024-02-28T16:47:21;12.99;86.88
77052;SHT30;65980;44.898;8.602;2024-02-28T16:50:27;12.86;86.67
77052;SHT30;65980;44.898;8.602;2024-02-28T16:53:36;12.84;86.74
77052;SHT30;65980;44.898;8.602;2024-02-28T16:56:41;12.92;86.45
77052;SHT30;65980;44.898;8.602;2024-02-28T16:59:46;12.90;87.14
77052;SHT30;65980;44.898;8.602;2024-02-28T17:03:07;12.73;87.26
77052;SHT30;65980;44.898;8.602;2024-02-28T17:06:14;12.83;86.55
77052;SHT30;65980;44.898;8.602;2024-02-28T17:09:27;12.63;87.55
77052;SHT30;65980;44.898;8.602;2024-02-28T17:13:12;12.60;87.94
77052;SHT30;65980;44.898;8.602;2024-02-28T17:16:30;12.69;87.70
77052;SHT30;65980;44.898;8.602;2024-02-28T17:19:49;12.53;87.95
77052;SHT30;65980;44.898;8.602;2024-02-28T17:23:03;12.66;86.77
77052;SHT30;65980;44.898;8.602;2024-02-28T17:30:22;12.86;85.84
77052;SHT30;65980;44.898;8.602;2024-02-28T17:33:26;12.65;85.51
77052;SHT30;65980;44.898;8.602;2024-02-28T17:36:31;12.69;85.04
77052;SHT30;65980;44.898;8.602;2024-02-28T17:39:36;12.75;85.17
77052;SHT30;65980;44.898;8.602;2024-02-28T17:42:42;12.67;84.92
77052;SHT30;65980;44.898;8.602;2024-02-28T17:45:46;12.50;85.54
77052;SHT30;65980;44.898;8.602;2024-02-28T17:48:51;12.65;85.39
77052;SHT30;65980;44.898;8.602;2024-02-28T17:51:56;12.62;84.80
77052;SHT30;65980;44.898;8.602;2024-02-28T17:55:01;12.53;85.40
77052;SHT30;65980;44.898;8.602;2024-02-28T17:58:06;12.48;85.62
77052;SHT30;65980;44.898;8.602;2024-02-28T18:01:10;12.25;86.63
77052;SHT30;65980;44.898;8.602;2024-02-28T18:04:15;12.44;86.05
77052;SHT30;65980;44.898;8.602;2024-02-28T18:07:19;12.56;85.72
77052;SHT30;65980;44.898;8.602;2024-02-28T18:10:24;12.48;85.71
77052;SHT30;65980;44.898;8.602;2024-02-28T18:13:29;12.49;86.08
77052;SHT30;65980;44.898;8.602;2024-02-28T18:16:33;12.44;86.13
77052;SHT30;65980;44.898;8.602;2024-02-28T18:19:38;12.42;86.13
77052;SHT30;65980;44.898;8.602;2024-02-28T18:22:42;12.42;85.97
77052;SHT30;65980;44.898;8.602;2024-02-28T18:25:46;12.46;85.83
77052;SHT30;65980;44.898;8.602;2024-02-28T18:28:50;12.53;85.86
77052;SHT30;65980;44.898;8.602;2024-02-28T18:31:54;12.59;85.81
77052;SHT30;65980;44.898;8.602;2024-02-28T18:34:58;12.67;85.45
77052;SHT30;65980;44.898;8.602;2024-02-28T18:38:04;12.75;85.47
77052;SHT30;65980;44.898;8.602;2024-02-28T18:41:08;12.77;85.24
77052;SHT30;65980;44.898;8.602;2024-02-28T18:44:13;12.70;85.14
77052;SHT30;65980;44.898;8.602;2024-02-28T18:47:18;12.73;85.12
77052;SHT30;65980;44.898;8.602;2024-02-28T18:50:22;12.59;85.36
77052;SHT30;65980;44.898;8.602;2024-02-28T18:53:28;12.35;86.20
77052;SHT30;65980;44.898;8.602;2024-02-28T18:56:32;12.21;86.85
77052;SHT30;65980;44.898;8.602;2024-02-28T18:59:38;12.10;87.31
77052;SHT30;65980;44.898;8.602;2024-02-28T19:02:43;12.04;87.68
77052;SHT30;65980;44.898;8.602;2024-02-28T19:05:48;11.98;88.15
77052;SHT30;65980;44.898;8.602;2024-02-28T19:08:51;11.94;87.97
77052;SHT30;65980;44.898;8.602;2024-02-28T19:11:59;11.91;88.24
77052;SHT30;65980;44.898;8.602;2024-02-28T19:15:04;11.89;88.30
77052;SHT30;65980;44.898;8.602;2024-02-28T19:18:09;11.82;88.77
77052;SHT30;65980;44.898;8.602;2024-02-28T19:21:14;11.76;88.83
77052;SHT30;65980;44.898;8.602;2024-02-28T19:24:20;11.76;89.09
77052;SHT30;65980;44.898;8.602;2024-02-28T19:27:26;11.89;88.87
77052;SHT30;65980;44.898;8.602;2024-02-28T19:30:31;12.03;88.47
77052;SHT30;65980;44.898;8.602;2024-02-28T19:33:36;12.17;88.14
77052;SHT30;65980;44.898;8.602;2024-02-28T19:36:42;12.17;88.03
77052;SHT30;65980;44.898;8.602;2024-02-28T19:39:48;12.25;87.75
77052;SHT30;65980;44.898;8.602;2024-02-28T19:42:54;12.20;87.69
77052;SHT30;65980;44.898;8.602;2024-02-28T19:46:00;12.20;87.87
77052;SHT30;65980;44.898;8.602;2024-02-28T19:49:05;12.34;87.73